createdAt,value
2018-09-30T00:01:18.410Z,90.91
2018-09-30T00:03:46.099Z,90.70
2018-09-30T00:06:13.729Z,90.91
2018-09-30T00:08:41.333Z,90.64
2018-09-30T00:11:08.973Z,90.60
2018-09-30T00:13:36.577Z,90.51
2018-09-30T00:16:04.232Z,90.93
2018-09-30T00:18:31.846Z,90.91
2018-09-30T00:20:59.505Z,91.58
2018-09-30T00:23:27.213Z,91.63
2018-09-30T00:26:00.366Z,91.31
2018-09-30T00:28:27.992Z,91.50
2018-09-30T00:30:55.657Z,91.34
2018-09-30T00:33:23.272Z,91.50
2018-09-30T00:35:50.881Z,91.54
2018-09-30T00:38:18.621Z,91.52
2018-09-30T00:40:46.236Z,91.59
2018-09-30T00:43:13.854Z,91.54
2018-09-30T00:45:41.493Z,91.12
2018-09-30T00:48:09.113Z,91.36
2018-09-30T00:50:36.736Z,91.55
2018-09-30T00:53:04.408Z,91.52
2018-09-30T00:55:32.025Z,91.37
2018-09-30T00:57:59.632Z,91.56
2018-09-30T01:00:27.260Z,91.49
2018-09-30T01:02:54.920Z,91.41
2018-09-30T01:05:22.545Z,91.03
2018-09-30T01:07:50.248Z,91.45
2018-09-30T01:10:17.930Z,91.39
2018-09-30T01:12:45.592Z,91.16
2018-09-30T01:15:13.365Z,91.52
2018-09-30T01:17:41.003Z,91.35
2018-09-30T01:20:08.665Z,91.82
2018-09-30T01:22:36.276Z,91.54
2018-09-30T01:25:03.913Z,91.42
2018-09-30T01:27:31.560Z,91.90
2018-09-30T01:29:59.187Z,92.34
2018-09-30T01:32:26.861Z,91.97
2018-09-30T01:34:54.460Z,91.75
2018-09-30T01:37:22.094Z,91.88
2018-09-30T01:39:49.729Z,92.12
2018-09-30T01:42:17.354Z,92.26
2018-09-30T01:44:44.960Z,91.98
2018-09-30T01:47:12.601Z,91.96
2018-09-30T01:49:40.234Z,92.11
2018-09-30T01:52:19.089Z,91.92
2018-09-30T01:54:46.773Z,92.07
2018-09-30T01:57:14.416Z,92.27
2018-09-30T01:59:42.089Z,92.07
2018-09-30T02:02:09.773Z,91.85
2018-09-30T02:04:37.405Z,92.40
2018-09-30T02:07:05.109Z,92.24
2018-09-30T02:09:32.741Z,91.77
2018-09-30T02:12:00.505Z,91.70
2018-09-30T02:14:28.137Z,91.61
2018-09-30T02:16:55.761Z,91.46
2018-09-30T02:19:23.434Z,91.60
2018-09-30T02:21:51.047Z,91.69
2018-09-30T02:24:18.660Z,91.43
2018-09-30T02:26:46.336Z,91.36
2018-09-30T02:29:13.946Z,91.31
2018-09-30T02:31:41.709Z,91.19
2018-09-30T02:34:09.329Z,91.24
2018-09-30T02:36:37.033Z,91.36
2018-09-30T02:39:05.753Z,91.32
2018-09-30T02:41:33.366Z,91.30
2018-09-30T02:44:00.993Z,91.17
2018-09-30T02:46:28.753Z,91.07
2018-09-30T02:48:56.369Z,91.20
2018-09-30T02:51:23.989Z,91.03
2018-09-30T02:53:51.610Z,91.19
2018-09-30T02:56:19.222Z,91.25
2018-09-30T02:58:46.901Z,91.09
2018-09-30T03:01:14.524Z,91.17
2018-09-30T03:03:42.134Z,91.17
2018-09-30T03:06:16.200Z,91.23
2018-09-30T03:08:49.250Z,91.48
2018-09-30T03:11:16.932Z,91.21
2018-09-30T03:13:44.553Z,91.17
2018-09-30T03:16:12.181Z,91.12
2018-09-30T03:18:39.806Z,90.89
2018-09-30T03:21:07.425Z,90.98
2018-09-30T03:23:35.085Z,90.54
2018-09-30T03:26:02.715Z,90.70
2018-09-30T03:28:30.337Z,90.63
2018-09-30T03:30:58.008Z,90.50
2018-09-30T03:33:25.653Z,90.64
2018-09-30T03:35:53.280Z,90.54
2018-09-30T03:38:20.921Z,90.54
2018-09-30T03:40:48.554Z,90.18
2018-09-30T03:43:16.178Z,90.68
2018-09-30T03:45:43.861Z,90.66
2018-09-30T03:48:11.478Z,90.77
2018-09-30T03:50:39.080Z,90.63
2018-09-30T03:53:06.868Z,91.05
2018-09-30T03:55:34.487Z,90.96
2018-09-30T03:58:02.129Z,90.59
2018-09-30T04:00:29.776Z,91.30
2018-09-30T04:02:57.421Z,91.74
2018-09-30T04:05:25.061Z,91.89
2018-09-30T04:07:52.769Z,91.76
2018-09-30T04:10:20.393Z,91.82
2018-09-30T04:12:48.089Z,91.61
2018-09-30T04:15:15.723Z,91.57
2018-09-30T04:17:43.324Z,91.38
2018-09-30T04:20:11.041Z,91.54
2018-09-30T04:22:38.648Z,91.50
2018-09-30T04:25:06.385Z,91.61
2018-09-30T04:27:34.057Z,91.65
2018-09-30T04:30:01.661Z,91.22
2018-09-30T04:32:29.289Z,91.52
2018-09-30T04:34:56.935Z,91.55
2018-09-30T04:37:24.560Z,91.92
2018-09-30T04:39:52.161Z,91.52
2018-09-30T04:42:19.908Z,91.54
2018-09-30T04:44:47.580Z,91.51
2018-09-30T04:47:15.208Z,91.43
2018-09-30T04:49:42.849Z,91.33
2018-09-30T04:52:10.445Z,91.40
2018-09-30T04:54:38.068Z,91.38
2018-09-30T04:57:05.720Z,91.86
2018-09-30T04:59:33.332Z,91.56
2018-09-30T05:02:00.945Z,91.25
2018-09-30T05:04:28.567Z,91.58
2018-09-30T05:06:56.215Z,91.56
2018-09-30T05:09:23.857Z,91.39
2018-09-30T05:11:51.458Z,91.26
2018-09-30T05:14:19.243Z,91.48
2018-09-30T05:16:46.857Z,91.40
2018-09-30T05:19:14.473Z,91.13
2018-09-30T05:21:42.118Z,90.84
2018-09-30T05:24:09.789Z,91.19
2018-09-30T05:26:37.453Z,91.32
2018-09-30T05:29:05.297Z,91.05
2018-09-30T05:31:32.925Z,90.97
2018-09-30T05:34:00.577Z,90.95
2018-09-30T05:36:28.200Z,90.99
2018-09-30T05:38:55.857Z,90.97
2018-09-30T05:41:23.521Z,90.78
2018-09-30T05:43:51.245Z,91.17
2018-09-30T05:46:18.897Z,90.83
2018-09-30T05:48:46.515Z,90.62
2018-09-30T05:51:14.180Z,90.77
2018-09-30T05:53:41.825Z,90.72
2018-09-30T05:56:09.433Z,90.54
2018-09-30T05:58:37.100Z,90.40
2018-09-30T06:01:04.716Z,90.40
2018-09-30T06:03:32.387Z,89.60
2018-09-30T06:06:00.042Z,90.19
2018-09-30T06:08:27.698Z,90.23
2018-09-30T06:10:55.337Z,90.25
2018-09-30T06:13:22.965Z,89.82
2018-09-30T06:15:50.603Z,90.01
2018-09-30T06:18:18.269Z,89.92
2018-09-30T06:20:45.913Z,90.10
2018-09-30T06:23:13.520Z,89.79
2018-09-30T06:25:41.225Z,89.69
2018-09-30T06:28:08.840Z,89.64
2018-09-30T06:30:36.470Z,89.60
2018-09-30T06:33:04.609Z,89.78
2018-09-30T06:35:32.232Z,89.39
2018-09-30T06:37:59.871Z,89.24
2018-09-30T06:40:27.615Z,89.18
2018-09-30T06:42:55.276Z,88.46
2018-09-30T06:45:22.916Z,88.34
2018-09-30T06:47:50.557Z,88.32
2018-09-30T06:50:18.172Z,88.65
2018-09-30T06:52:45.840Z,88.09
2018-09-30T06:55:13.485Z,87.55
2018-09-30T06:57:41.092Z,87.17
2018-09-30T07:00:08.794Z,86.74
2018-09-30T07:02:36.424Z,87.56
2018-09-30T07:05:04.125Z,86.93
2018-09-30T07:07:31.790Z,86.23
2018-09-30T07:09:59.424Z,86.39
2018-09-30T07:12:27.057Z,86.49
2018-09-30T07:14:54.716Z,86.42
2018-09-30T07:17:22.576Z,86.20
2018-09-30T07:19:50.223Z,85.98
2018-09-30T07:22:17.921Z,85.80
2018-09-30T07:24:45.518Z,85.90
2018-09-30T07:27:13.153Z,85.98
2018-09-30T07:29:40.893Z,85.57
2018-09-30T07:32:08.789Z,85.59
2018-09-30T07:34:36.505Z,86.24
2018-09-30T07:37:04.174Z,85.39
2018-09-30T07:39:31.842Z,86.31
2018-09-30T07:41:59.516Z,86.48
2018-09-30T07:44:27.152Z,85.33
2018-09-30T07:46:54.837Z,86.03
2018-09-30T07:49:22.429Z,85.27
2018-09-30T07:51:50.226Z,85.04
2018-09-30T07:54:17.857Z,84.92
2018-09-30T07:56:45.473Z,84.86
2018-09-30T07:59:13.120Z,85.20
2018-09-30T08:01:40.761Z,84.24
2018-09-30T08:04:08.433Z,84.74
2018-09-30T08:06:36.053Z,84.23
2018-09-30T08:09:05.397Z,84.71
2018-09-30T08:11:33.056Z,84.42
2018-09-30T08:14:00.784Z,84.28
2018-09-30T08:16:28.454Z,83.58
2018-09-30T08:18:56.199Z,83.84
2018-09-30T08:21:23.832Z,84.37
2018-09-30T08:23:51.458Z,83.72
2018-09-30T08:26:19.189Z,82.87
2018-09-30T08:28:46.796Z,84.10
2018-09-30T08:31:14.433Z,83.32
2018-09-30T08:33:42.137Z,83.70
2018-09-30T08:36:10.494Z,83.84
2018-09-30T08:38:39.437Z,83.19
2018-09-30T08:41:09.180Z,82.72
2018-09-30T08:43:37.961Z,81.80
2018-09-30T08:46:06.088Z,81.62
2018-09-30T08:48:33.702Z,80.86
2018-09-30T08:51:01.352Z,79.80
2018-09-30T08:53:29.016Z,80.88
2018-09-30T08:55:57.364Z,81.12
2018-09-30T08:58:25.889Z,80.30
2018-09-30T09:00:53.517Z,79.03
2018-09-30T09:03:21.145Z,79.81
2018-09-30T09:05:48.881Z,80.90
2018-09-30T09:08:16.921Z,78.87
2018-09-30T09:10:44.580Z,78.70
2018-09-30T09:13:12.498Z,78.61
2018-09-30T09:15:40.174Z,78.82
2018-09-30T09:18:07.816Z,78.09
2018-09-30T09:20:35.512Z,77.32
2018-09-30T09:23:03.141Z,76.99
2018-09-30T09:25:30.812Z,77.61
2018-09-30T09:27:58.500Z,75.37
2018-09-30T09:30:26.166Z,76.95
2018-09-30T09:32:53.866Z,74.63
2018-09-30T09:35:21.463Z,77.00
2018-09-30T09:37:49.101Z,77.06
2018-09-30T09:40:16.793Z,77.05
2018-09-30T09:42:44.465Z,74.03
2018-09-30T09:45:12.108Z,72.25
2018-09-30T09:47:39.708Z,73.79
2018-09-30T09:50:07.829Z,75.48
2018-09-30T09:52:35.505Z,73.79
2018-09-30T09:55:03.255Z,75.34
2018-09-30T09:57:30.999Z,73.24
2018-09-30T09:59:58.577Z,74.06
2018-09-30T10:02:26.229Z,74.27
2018-09-30T10:04:53.847Z,74.12
2018-09-30T10:07:21.545Z,72.89
2018-09-30T10:09:49.256Z,71.29
2018-09-30T10:12:16.840Z,71.70
2018-09-30T10:14:44.530Z,71.30
2018-09-30T10:17:12.145Z,71.95
2018-09-30T10:19:39.912Z,72.41
2018-09-30T10:22:07.861Z,72.85
2018-09-30T10:24:35.476Z,72.79
2018-09-30T10:27:03.105Z,71.89
2018-09-30T10:29:30.740Z,69.63
2018-09-30T10:31:58.438Z,71.42
2018-09-30T10:34:26.057Z,70.63
2018-09-30T10:36:53.685Z,69.01
2018-09-30T10:39:21.514Z,68.67
2018-09-30T10:41:49.065Z,69.08
2018-09-30T10:44:17.203Z,70.10
2018-09-30T10:46:44.971Z,67.36
2018-09-30T10:49:12.765Z,71.19
2018-09-30T10:51:42.513Z,68.37
2018-09-30T10:54:10.116Z,69.49
2018-09-30T10:56:37.753Z,70.37
2018-09-30T10:59:05.469Z,70.12
2018-09-30T11:01:33.122Z,70.05
2018-09-30T11:04:00.827Z,70.11
2018-09-30T11:06:28.512Z,70.01
2018-09-30T11:08:56.205Z,68.41
2018-09-30T11:11:23.839Z,68.71
2018-09-30T11:13:51.480Z,69.06
2018-09-30T11:16:19.141Z,69.11
2018-09-30T11:18:46.780Z,68.94
2018-09-30T11:21:14.408Z,68.73
2018-09-30T11:23:42.022Z,66.54
2018-09-30T11:26:09.661Z,68.05
2018-09-30T11:28:37.278Z,69.39
2018-09-30T11:31:05.001Z,66.65
2018-09-30T11:33:32.612Z,69.34
2018-09-30T11:36:00.484Z,69.43
2018-09-30T11:38:28.144Z,68.71
2018-09-30T11:40:55.776Z,68.50
2018-09-30T11:43:23.487Z,68.51
2018-09-30T11:45:51.122Z,67.36
2018-09-30T11:48:18.765Z,66.74
2018-09-30T11:50:46.396Z,66.71
2018-09-30T11:53:14.057Z,66.88
2018-09-30T11:55:41.717Z,67.32
2018-09-30T11:58:09.322Z,63.99
2018-09-30T12:00:37.103Z,66.81
2018-09-30T12:03:04.788Z,67.60
2018-09-30T12:05:32.497Z,66.28
2018-09-30T12:08:00.113Z,66.55
2018-09-30T12:10:27.722Z,65.58
2018-09-30T12:12:55.402Z,65.78
2018-09-30T12:15:23.017Z,64.58
2018-09-30T12:17:50.645Z,63.81
2018-09-30T12:20:18.280Z,65.50
2018-09-30T12:22:45.905Z,64.03
2018-09-30T12:25:13.517Z,63.59
2018-09-30T12:27:41.153Z,61.70
2018-09-30T12:30:08.798Z,64.68
2018-09-30T12:32:36.423Z,65.13
2018-09-30T12:35:04.443Z,60.08
2018-09-30T12:37:32.080Z,64.23
2018-09-30T12:39:59.732Z,63.24
2018-09-30T12:42:27.361Z,63.75
2018-09-30T12:44:55.013Z,63.57
2018-09-30T12:47:22.817Z,64.94
2018-09-30T12:49:50.438Z,63.23
2018-09-30T12:52:18.056Z,64.10
2018-09-30T12:54:45.721Z,64.74
2018-09-30T12:57:13.333Z,63.50
2018-09-30T12:59:40.945Z,63.29
2018-09-30T13:02:08.586Z,63.63
2018-09-30T13:04:36.222Z,63.28
2018-09-30T13:07:03.997Z,63.62
2018-09-30T13:09:31.617Z,64.79
2018-09-30T13:11:59.239Z,63.65
2018-09-30T13:14:26.914Z,65.05
2018-09-30T13:16:54.559Z,64.36
2018-09-30T13:19:22.205Z,63.63
2018-09-30T13:21:49.883Z,62.40
2018-09-30T13:24:17.541Z,63.57
2018-09-30T13:26:45.171Z,63.02
2018-09-30T13:29:12.923Z,64.72
2018-09-30T13:31:40.548Z,64.03
2018-09-30T13:34:08.188Z,64.99
2018-09-30T13:36:35.858Z,63.71
2018-09-30T13:39:04.528Z,64.95
2018-09-30T13:41:32.257Z,65.03
2018-09-30T13:43:59.969Z,65.33
2018-09-30T13:46:27.655Z,64.63
2018-09-30T13:48:55.305Z,64.48
2018-09-30T13:51:23.053Z,64.59
2018-09-30T13:53:50.646Z,64.99
2018-09-30T13:56:18.383Z,65.37
2018-09-30T13:58:46.029Z,64.78
2018-09-30T14:01:13.678Z,64.77
2018-09-30T14:03:41.309Z,64.88
2018-09-30T14:06:09.031Z,64.74
2018-09-30T14:08:36.698Z,65.75
2018-09-30T14:11:04.412Z,64.65
2018-09-30T14:13:32.173Z,65.81
2018-09-30T14:15:59.821Z,65.75
2018-09-30T14:18:27.514Z,65.35
2018-09-30T14:20:55.184Z,67.07
2018-09-30T14:23:22.842Z,66.83
2018-09-30T14:25:50.539Z,67.66
2018-09-30T14:28:18.243Z,66.28
2018-09-30T14:30:45.953Z,65.92
2018-09-30T14:33:13.658Z,66.72
2018-09-30T14:35:41.283Z,66.41
2018-09-30T14:38:08.942Z,66.05
2018-09-30T14:40:36.624Z,66.98
2018-09-30T14:43:04.435Z,67.29
2018-09-30T14:45:32.054Z,66.61
2018-09-30T14:48:00.208Z,66.82
2018-09-30T14:50:29.019Z,67.20
2018-09-30T14:52:57.289Z,67.78
2018-09-30T14:55:25.268Z,68.88
2018-09-30T14:57:53.021Z,67.56
2018-09-30T15:00:20.644Z,68.24
2018-09-30T15:02:48.253Z,69.05
2018-09-30T15:05:15.970Z,67.86
2018-09-30T15:07:43.596Z,68.13
2018-09-30T15:10:11.239Z,67.63
2018-09-30T15:12:38.877Z,68.53
2018-09-30T15:15:07.785Z,69.15
2018-09-30T15:17:35.781Z,69.12
2018-09-30T15:20:03.513Z,69.14
2018-09-30T15:22:31.196Z,70.47
2018-09-30T15:24:59.252Z,69.93
2018-09-30T15:27:26.973Z,69.37
2018-09-30T15:29:54.633Z,69.80
2018-09-30T15:32:22.263Z,69.46
2018-09-30T15:34:49.890Z,70.01
2018-09-30T15:37:17.614Z,69.34
2018-09-30T15:39:45.233Z,69.37
2018-09-30T15:42:12.857Z,69.98
2018-09-30T15:44:40.566Z,70.41
2018-09-30T15:47:09.053Z,69.93
2018-09-30T15:49:36.721Z,70.41
2018-09-30T15:52:04.378Z,71.02
2018-09-30T15:54:32.016Z,71.55
2018-09-30T15:56:59.707Z,70.86
2018-09-30T15:59:27.334Z,71.33
2018-09-30T16:01:54.974Z,71.87
2018-09-30T16:04:22.601Z,72.01
2018-09-30T16:06:50.295Z,71.61
2018-09-30T16:09:17.907Z,72.48
2018-09-30T16:11:45.601Z,72.57
2018-09-30T16:14:13.244Z,73.41
2018-09-30T16:16:40.986Z,73.31
2018-09-30T16:19:08.667Z,73.32
2018-09-30T16:21:36.349Z,73.25
2018-09-30T16:24:04.017Z,74.72
2018-09-30T16:26:31.637Z,73.83
2018-09-30T16:28:59.308Z,74.15
2018-09-30T16:31:26.996Z,74.87
2018-09-30T16:33:54.649Z,75.18
2018-09-30T16:36:22.285Z,75.24
2018-09-30T16:38:50.032Z,75.45
2018-09-30T16:41:17.726Z,75.73
2018-09-30T16:43:45.350Z,76.13
2018-09-30T16:46:13.019Z,76.44
2018-09-30T16:48:40.701Z,76.33
2018-09-30T16:51:08.326Z,76.98
2018-09-30T16:53:36.087Z,77.11
2018-09-30T16:56:03.764Z,76.72
2018-09-30T16:58:31.381Z,76.91
2018-09-30T17:00:59.057Z,76.81
2018-09-30T17:03:26.670Z,76.89
2018-09-30T17:05:54.377Z,77.48
2018-09-30T17:08:22.094Z,77.61
2018-09-30T17:10:49.754Z,78.24
2018-09-30T17:13:17.429Z,77.99
2018-09-30T17:15:45.089Z,78.60
2018-09-30T17:18:12.718Z,79.16
2018-09-30T17:20:40.385Z,79.18
2018-09-30T17:23:08.020Z,79.42
2018-09-30T17:25:35.672Z,79.70
2018-09-30T17:28:03.353Z,79.83
2018-09-30T17:30:31.049Z,79.99
2018-09-30T17:32:58.713Z,80.13
2018-09-30T17:35:26.481Z,80.54
2018-09-30T17:37:54.195Z,81.06
2018-09-30T17:40:21.893Z,80.85
2018-09-30T17:42:49.520Z,80.94
2018-09-30T17:45:17.146Z,81.32
2018-09-30T17:47:44.828Z,81.93
2018-09-30T17:50:12.473Z,81.68
2018-09-30T17:52:40.115Z,80.89
2018-09-30T17:55:07.800Z,81.33
2018-09-30T17:57:35.467Z,81.69
2018-09-30T18:00:03.675Z,82.11
2018-09-30T18:02:31.306Z,82.30
2018-09-30T18:04:58.941Z,82.17
2018-09-30T18:07:26.593Z,81.95
2018-09-30T18:09:54.234Z,82.97
2018-09-30T18:12:21.961Z,82.54
2018-09-30T18:14:49.633Z,82.99
2018-09-30T18:17:17.315Z,82.92
2018-09-30T18:19:44.973Z,83.98
2018-09-30T18:22:12.628Z,83.11
2018-09-30T18:24:40.285Z,83.44
2018-09-30T18:27:07.893Z,82.33
2018-09-30T18:29:35.545Z,82.33
2018-09-30T18:32:03.322Z,83.47
2018-09-30T18:34:30.937Z,82.51
2018-09-30T18:36:58.566Z,82.60
2018-09-30T18:39:26.204Z,82.41
2018-09-30T18:41:53.815Z,82.79
2018-09-30T18:44:21.704Z,83.25
2018-09-30T18:46:49.322Z,83.46
2018-09-30T18:49:16.961Z,83.42
2018-09-30T18:51:44.602Z,83.43
2018-09-30T18:54:12.289Z,83.77
2018-09-30T18:56:39.904Z,83.74
2018-09-30T18:59:07.528Z,84.21
2018-09-30T19:01:35.266Z,83.34
2018-09-30T19:04:02.887Z,83.18
2018-09-30T19:06:30.621Z,84.00
2018-09-30T19:08:58.231Z,84.22
2018-09-30T19:11:25.954Z,84.51
2018-09-30T19:13:53.587Z,83.67
2018-09-30T19:16:21.401Z,84.93
2018-09-30T19:18:49.040Z,84.80
2018-09-30T19:21:16.700Z,84.04
2018-09-30T19:23:44.424Z,84.35
2018-09-30T19:26:12.068Z,84.78
2018-09-30T19:28:39.713Z,84.72
2018-09-30T19:31:07.652Z,84.55
2018-09-30T19:33:35.317Z,84.77
2018-09-30T19:36:02.933Z,85.71
2018-09-30T19:38:30.637Z,85.89
2018-09-30T19:40:58.278Z,86.48
2018-09-30T19:43:25.920Z,86.00
2018-09-30T19:45:53.685Z,85.89
2018-09-30T19:48:21.424Z,85.66
2018-09-30T19:50:49.027Z,86.33
2018-09-30T19:53:16.668Z,85.95
2018-09-30T19:55:44.345Z,85.29
2018-09-30T19:58:12.268Z,85.74
2018-09-30T20:00:39.892Z,86.31
2018-09-30T20:03:07.649Z,85.92
2018-09-30T20:05:35.310Z,86.87
2018-09-30T20:08:02.917Z,86.46
2018-09-30T20:10:30.595Z,86.12
2018-09-30T20:12:58.358Z,86.06
2018-09-30T20:15:25.985Z,86.56
2018-09-30T20:18:00.425Z,86.28
2018-09-30T20:20:28.061Z,85.91
2018-09-30T20:22:55.686Z,85.95
2018-09-30T20:25:23.310Z,86.25
2018-09-30T20:27:51.010Z,86.61
2018-09-30T20:30:18.753Z,86.70
2018-09-30T20:32:46.398Z,87.97
2018-09-30T20:35:14.061Z,87.27
2018-09-30T20:37:41.692Z,86.85
2018-09-30T20:40:09.355Z,86.97
2018-09-30T20:42:37.010Z,87.81
2018-09-30T20:45:04.748Z,88.23
2018-09-30T20:47:32.431Z,87.80
2018-09-30T20:50:00.086Z,87.79
2018-09-30T20:52:27.724Z,87.97
2018-09-30T20:54:55.369Z,87.87
2018-09-30T20:57:23.049Z,88.13
2018-09-30T20:59:50.672Z,88.14
2018-09-30T21:02:18.337Z,88.20
2018-09-30T21:04:45.964Z,87.96
2018-09-30T21:07:13.646Z,87.78
2018-09-30T21:09:41.281Z,87.95
2018-09-30T21:12:08.919Z,88.35
2018-09-30T21:14:36.558Z,88.21
2018-09-30T21:17:04.229Z,88.39
2018-09-30T21:19:31.845Z,88.54
2018-09-30T21:21:59.489Z,88.36
2018-09-30T21:24:27.129Z,88.51
2018-09-30T21:26:54.741Z,89.14
2018-09-30T21:29:22.360Z,88.69
2018-09-30T21:31:50.013Z,89.27
2018-09-30T21:34:17.725Z,89.69
2018-09-30T21:36:45.389Z,89.59
2018-09-30T21:39:13.033Z,89.23
2018-09-30T21:41:40.700Z,89.33
2018-09-30T21:44:08.621Z,89.30
2018-09-30T21:46:36.777Z,89.55
2018-09-30T21:49:04.540Z,89.10
2018-09-30T21:51:32.197Z,89.30
2018-09-30T21:53:59.845Z,89.42
2018-09-30T21:56:27.502Z,89.19
2018-09-30T21:58:55.513Z,89.43
2018-09-30T22:01:23.264Z,89.54
2018-09-30T22:03:50.829Z,90.07
2018-09-30T22:06:18.459Z,90.25
2018-09-30T22:08:46.111Z,91.19
2018-09-30T22:11:13.752Z,91.68
2018-09-30T22:13:41.385Z,91.59
2018-09-30T22:16:09.029Z,91.61
2018-09-30T22:18:36.685Z,91.21
2018-09-30T22:21:04.305Z,91.40
2018-09-30T22:23:31.987Z,90.72
2018-09-30T22:25:59.605Z,90.64
2018-09-30T22:28:27.215Z,90.19
2018-09-30T22:30:54.864Z,90.03
2018-09-30T22:33:22.512Z,89.92
2018-09-30T22:35:50.126Z,90.04
2018-09-30T22:38:17.839Z,89.43
2018-09-30T22:40:45.449Z,89.24
2018-09-30T22:43:13.089Z,89.66
2018-09-30T22:45:40.777Z,89.44
2018-09-30T22:48:08.401Z,88.63
2018-09-30T22:50:36.068Z,88.29
2018-09-30T22:53:03.731Z,88.93
2018-09-30T22:55:31.380Z,89.00
2018-09-30T22:57:59.020Z,89.47
2018-09-30T23:00:26.692Z,89.07
2018-09-30T23:02:54.332Z,89.11
2018-09-30T23:05:21.996Z,89.58
2018-09-30T23:07:49.676Z,89.63
2018-09-30T23:10:17.318Z,89.45
2018-09-30T23:12:45.018Z,88.98
2018-09-30T23:15:12.651Z,89.48
2018-09-30T23:17:40.303Z,89.33
2018-09-30T23:20:13.628Z,89.65
2018-09-30T23:22:41.238Z,89.33
2018-09-30T23:25:08.900Z,89.30
2018-09-30T23:27:36.550Z,89.51
2018-09-30T23:30:04.280Z,89.59
2018-09-30T23:32:31.920Z,89.09
2018-09-30T23:34:59.547Z,89.65
2018-09-30T23:37:27.212Z,89.64
2018-09-30T23:39:54.838Z,89.47
2018-09-30T23:42:22.488Z,89.39
2018-09-30T23:44:50.152Z,88.88
2018-09-30T23:47:17.781Z,88.92
2018-09-30T23:49:45.409Z,89.00
2018-09-30T23:52:13.097Z,89.13
2018-09-30T23:54:40.720Z,89.36
2018-09-30T23:57:08.337Z,89.52
2018-09-30T23:59:36.021Z,89.64
